createdAt,value
2018-06-16T00:06:53.927Z,16.5
2018-06-16T00:17:08.026Z,16.3
2018-06-16T00:27:21.990Z,16.3
2018-06-16T00:37:37.208Z,16
2018-06-16T00:47:50.957Z,15.8
2018-06-16T00:58:05.916Z,15.5
2018-06-16T01:08:20.449Z,15.5
2018-06-16T01:18:35.720Z,15.4
2018-06-16T01:28:49.613Z,15.3
2018-06-16T01:39:04.512Z,15.3
2018-06-16T01:49:20.260Z,15.1
2018-06-16T01:59:34.702Z,14.7
2018-06-16T02:09:50.353Z,14.8
2018-06-16T02:20:04.381Z,14.8
2018-06-16T02:30:17.952Z,14.8
2018-06-16T02:40:31.713Z,14.7
2018-06-16T02:50:46.060Z,14.7
2018-06-16T03:01:01.316Z,14.6
2018-06-16T03:11:16.431Z,14.6
2018-06-16T03:21:31.876Z,14.6
2018-06-16T03:31:46.464Z,14.6
2018-06-16T03:42:01.952Z,14.6
2018-06-16T03:52:16.397Z,14.7
2018-06-16T04:02:30.756Z,14.6
2018-06-16T04:12:45.686Z,14.9
2018-06-16T04:23:00.745Z,15.1
2018-06-16T04:33:15.379Z,15.5
2018-06-16T04:43:29.841Z,15.9
2018-06-16T04:53:44.707Z,16
2018-06-16T05:03:58.801Z,16.2
2018-06-16T05:14:12.809Z,16.8
2018-06-16T05:24:27.707Z,17.4
2018-06-16T05:34:42.393Z,17.9
2018-06-16T05:44:56.267Z,18.3
2018-06-16T05:55:10.293Z,18.6
2018-06-16T06:05:24.904Z,18.8
2018-06-16T06:15:38.962Z,18.9
2018-06-16T06:25:54.167Z,19
2018-06-16T06:36:07.983Z,20.2
2018-06-16T06:46:23.053Z,20.5
2018-06-16T06:56:37.990Z,20.6
2018-06-16T07:06:52.141Z,21.3
2018-06-16T07:17:07.480Z,21.9
2018-06-16T07:27:22.384Z,21.9
2018-06-16T07:37:36.920Z,22.1
2018-06-16T07:47:51.638Z,22
2018-06-16T07:58:06.535Z,22.7
2018-06-16T08:08:22.247Z,22.4
2018-06-16T08:18:38.020Z,22.7
2018-06-16T08:28:52.705Z,23.6
2018-06-16T08:39:06.863Z,22.5
2018-06-16T08:49:21.132Z,23.3
2018-06-16T08:59:35.710Z,23.4
2018-06-16T09:09:50.755Z,23.1
2018-06-16T09:20:06.125Z,23.2
2018-06-16T09:30:21.104Z,22.8
2018-06-16T09:40:37.179Z,23.2
2018-06-16T09:50:50.776Z,22.5
2018-06-16T10:01:05.381Z,22.7
2018-06-16T10:21:33.893Z,23.8
2018-06-16T10:31:48.264Z,23.8
2018-06-16T10:42:03.279Z,23.4
2018-06-16T10:52:18.956Z,24
2018-06-16T11:02:33.543Z,24.3
2018-06-16T11:12:48.607Z,23.7
2018-06-16T11:23:03.556Z,23.9
2018-06-16T11:33:18.284Z,24.1
2018-06-16T11:43:33.582Z,24.1
2018-06-16T11:53:49.354Z,24.4
2018-06-16T12:04:04.368Z,24.6
2018-06-16T12:14:20.011Z,24.8
2018-06-16T12:24:35.306Z,24
2018-06-16T12:34:49.567Z,25.1
2018-06-16T12:45:04.273Z,24.3
2018-06-16T12:55:18.651Z,25.9
2018-06-16T13:05:33.262Z,26.1
2018-06-16T13:15:47.752Z,24.2
2018-06-16T13:26:02.590Z,24.1
2018-06-16T13:36:16.896Z,24
2018-06-16T13:46:31.485Z,24.1
2018-06-16T13:56:46.981Z,24.9
2018-06-16T14:07:01.443Z,24.7
2018-06-16T14:17:16.365Z,25
2018-06-16T14:27:31.233Z,26.3
2018-06-16T14:37:46.539Z,25.4
2018-06-16T14:48:01.864Z,27.4
2018-06-16T14:58:16.014Z,26.9
2018-06-16T15:08:30.195Z,26.4
2018-06-16T15:18:45.750Z,25.4
2018-06-16T15:29:01.149Z,25
2018-06-16T15:39:16.416Z,25.4
